createdAt,value
2019-03-03T00:00:55.163Z,31.07
2019-03-03T00:03:50.606Z,30.70
2019-03-03T00:06:46.143Z,31.35
2019-03-03T00:09:41.793Z,30.45
2019-03-03T00:12:37.501Z,31.82
2019-03-03T00:15:33.505Z,31.33
2019-03-03T00:18:29.398Z,31.62
2019-03-03T00:21:38.520Z,30.82
2019-03-03T00:24:34.083Z,32.03
2019-03-03T00:27:29.555Z,31.75
2019-03-03T00:30:25.267Z,32.15
2019-03-03T00:33:21.044Z,32.08
2019-03-03T00:36:16.506Z,31.25
2019-03-03T00:39:20.339Z,30.60
2019-03-03T00:42:38.450Z,31.73
2019-03-03T00:45:47.501Z,30.25
2019-03-03T00:49:01.014Z,30.85
2019-03-03T00:52:06.598Z,32.58
2019-03-03T00:55:20.879Z,32.75
2019-03-03T00:58:31.828Z,36.98
2019-03-03T01:01:40.336Z,36.23
2019-03-03T01:05:04.088Z,35.98
2019-03-03T01:08:31.071Z,37.17
2019-03-03T01:11:44.200Z,39.45
2019-03-03T01:15:02.517Z,44.00
2019-03-03T01:18:16.906Z,43.15
2019-03-03T01:21:29.701Z,41.80
2019-03-03T01:24:46.420Z,42.55
2019-03-03T01:27:43.445Z,54.27
2019-03-03T01:30:40.047Z,69.55
2019-03-03T01:33:36.979Z,74.35
2019-03-03T01:36:33.621Z,78.52
2019-03-03T01:39:29.861Z,83.90
2019-03-03T01:42:26.728Z,90.92
2019-03-03T01:45:23.304Z,81.70
2019-03-03T01:48:20.023Z,65.90
2019-03-03T01:51:17.311Z,66.92
2019-03-03T01:54:13.900Z,63.02
2019-03-03T01:57:10.960Z,66.28
2019-03-03T02:00:08.196Z,62.23
2019-03-03T02:03:05.069Z,69.50
2019-03-03T02:06:01.725Z,69.20
2019-03-03T02:08:58.667Z,68.22
2019-03-03T02:11:55.825Z,66.65
2019-03-03T02:14:52.568Z,73.45
2019-03-03T02:17:49.538Z,69.53
2019-03-03T02:20:46.086Z,68.28
2019-03-03T02:23:42.897Z,67.00
2019-03-03T02:26:40.361Z,68.33
2019-03-03T02:29:49.486Z,80.20
2019-03-03T02:32:46.555Z,91.05
2019-03-03T02:35:43.859Z,111.00
2019-03-03T02:38:40.866Z,95.42
2019-03-03T02:41:38.044Z,86.53
2019-03-03T02:44:34.774Z,83.52
2019-03-03T02:47:31.339Z,85.07
2019-03-03T02:50:28.211Z,82.40
2019-03-03T02:53:24.559Z,86.82
2019-03-03T02:56:21.370Z,80.32
2019-03-03T02:59:18.471Z,79.67
2019-03-03T03:02:30.939Z,78.10
2019-03-03T03:05:45.288Z,81.08
2019-03-03T03:08:59.639Z,72.75
2019-03-03T03:12:22.261Z,65.00
2019-03-03T03:15:30.819Z,68.87
2019-03-03T03:18:45.966Z,71.07
2019-03-03T03:22:03.082Z,67.87
2019-03-03T03:25:20.822Z,62.17
2019-03-03T03:28:42.467Z,60.40
2019-03-03T03:32:06.143Z,62.05
2019-03-03T03:35:29.831Z,63.80
2019-03-03T03:38:37.825Z,74.55
2019-03-03T03:41:51.978Z,73.52
2019-03-03T03:45:03.533Z,70.35
2019-03-03T03:48:21.555Z,71.33
2019-03-03T03:51:48.127Z,90.40
2019-03-03T03:55:20.945Z,85.97
2019-03-03T03:58:31.187Z,93.85
2019-03-03T04:01:48.428Z,90.87
2019-03-03T04:05:05.110Z,84.50
2019-03-03T04:08:19.292Z,81.95
2019-03-03T04:11:32.408Z,74.75
2019-03-03T04:14:49.097Z,73.55
2019-03-03T04:18:06.819Z,73.52
2019-03-03T04:21:08.738Z,69.77
2019-03-03T04:24:18.462Z,72.10
2019-03-03T04:27:47.255Z,75.10
2019-03-03T04:31:19.027Z,72.60
2019-03-03T04:34:48.123Z,67.10
2019-03-03T04:38:00.228Z,68.45
2019-03-03T04:41:04.595Z,67.85
2019-03-03T04:44:05.037Z,72.35
2019-03-03T04:47:15.204Z,82.40
2019-03-03T04:50:32.360Z,87.85
2019-03-03T04:53:47.319Z,88.47
2019-03-03T04:56:57.899Z,86.05
2019-03-03T05:00:09.738Z,86.35
2019-03-03T05:03:28.967Z,92.53
2019-03-03T05:06:38.740Z,86.50
2019-03-03T05:09:46.551Z,83.22
2019-03-03T05:13:09.989Z,84.83
2019-03-03T05:16:21.590Z,81.87
2019-03-03T05:19:24.161Z,80.57
2019-03-03T05:22:19.595Z,83.42
2019-03-03T05:25:15.645Z,80.42
2019-03-03T05:28:10.880Z,82.70
2019-03-03T05:31:06.563Z,83.70
2019-03-03T05:34:02.055Z,85.55
2019-03-03T05:36:57.803Z,84.35
2019-03-03T05:39:53.464Z,81.42
2019-03-03T05:42:49.209Z,81.55
2019-03-03T05:45:44.620Z,81.67
2019-03-03T05:48:40.463Z,79.67
2019-03-03T05:51:36.105Z,78.67
2019-03-03T05:54:32.047Z,74.95
2019-03-03T05:57:27.462Z,75.62
2019-03-03T06:00:23.012Z,80.45
2019-03-03T06:03:18.932Z,65.90
2019-03-03T06:06:15.229Z,73.80
2019-03-03T06:09:11.953Z,68.17
2019-03-03T06:12:08.105Z,73.85
2019-03-03T06:15:03.759Z,67.55
2019-03-03T06:17:59.166Z,68.97
2019-03-03T06:20:54.601Z,57.62
2019-03-03T06:23:50.075Z,60.05
2019-03-03T06:26:46.033Z,64.90
2019-03-03T06:29:41.343Z,62.78
2019-03-03T06:32:37.176Z,62.67
2019-03-03T06:35:32.894Z,58.87
2019-03-03T06:38:28.724Z,60.52
2019-03-03T06:41:24.747Z,58.00
2019-03-03T06:44:20.475Z,54.38
2019-03-03T06:47:16.363Z,55.20
2019-03-03T06:50:15.277Z,57.78
2019-03-03T06:53:12.647Z,49.83
2019-03-03T06:56:09.296Z,49.55
2019-03-03T06:59:04.306Z,48.20
2019-03-03T07:01:59.475Z,49.85
2019-03-03T07:04:55.431Z,47.43
2019-03-03T07:07:51.936Z,49.18
2019-03-03T07:10:47.879Z,45.25
2019-03-03T07:13:43.779Z,47.17
2019-03-03T07:16:39.156Z,40.55
2019-03-03T07:19:33.983Z,42.27
2019-03-03T07:22:29.060Z,47.58
2019-03-03T07:25:24.781Z,37.10
2019-03-03T07:28:20.008Z,45.23
2019-03-03T07:31:15.786Z,43.13
2019-03-03T07:34:11.506Z,43.30
2019-03-03T07:37:06.669Z,42.75
2019-03-03T07:40:01.745Z,42.10
2019-03-03T07:42:57.787Z,41.28
2019-03-03T07:45:58.206Z,41.20
2019-03-03T07:48:52.997Z,42.58
2019-03-03T07:51:48.052Z,40.98
2019-03-03T07:54:43.051Z,42.40
2019-03-03T07:57:38.360Z,37.95
2019-03-03T08:00:33.708Z,37.42
2019-03-03T08:03:29.025Z,36.77
2019-03-03T08:06:24.055Z,32.13
2019-03-03T08:09:20.144Z,29.00
2019-03-03T08:12:15.172Z,29.98
2019-03-03T08:15:10.450Z,33.38
2019-03-03T08:18:06.668Z,34.03
2019-03-03T08:21:02.382Z,33.75
2019-03-03T08:23:57.462Z,29.02
2019-03-03T08:26:52.864Z,27.73
2019-03-03T08:29:47.846Z,27.55
2019-03-03T08:32:43.043Z,24.47
2019-03-03T08:35:38.306Z,23.62
2019-03-03T08:38:33.525Z,27.22
2019-03-03T08:41:29.091Z,27.65
2019-03-03T08:44:40.885Z,21.97
2019-03-03T08:47:42.648Z,21.68
2019-03-03T08:50:58.084Z,17.62
2019-03-03T08:54:23.566Z,17.30
2019-03-03T08:57:37.299Z,17.73
2019-03-03T09:00:51.220Z,16.27
2019-03-03T09:04:07.017Z,17.12
2019-03-03T09:07:22.395Z,15.30
2019-03-03T09:10:27.218Z,15.15
2019-03-03T09:13:38.321Z,13.45
2019-03-03T09:16:49.799Z,16.62
2019-03-03T09:20:14.029Z,17.55
2019-03-03T09:23:29.225Z,19.80
2019-03-03T09:26:57.992Z,18.92
2019-03-03T09:30:14.541Z,17.67
2019-03-03T09:33:27.805Z,16.73
2019-03-03T09:36:45.317Z,19.95
2019-03-03T09:39:58.241Z,39.18
2019-03-03T09:43:20.388Z,28.12
2019-03-03T09:46:25.716Z,17.92
2019-03-03T09:49:42.950Z,17.37
2019-03-03T09:53:02.127Z,18.00
2019-03-03T09:56:21.160Z,16.95
2019-03-03T09:59:34.601Z,16.07
2019-03-03T10:02:37.204Z,17.73
2019-03-03T10:05:50.503Z,16.70
2019-03-03T10:09:06.439Z,16.48
2019-03-03T10:12:08.841Z,18.80
2019-03-03T10:15:40.067Z,17.55
2019-03-03T10:18:51.432Z,22.27
2019-03-03T10:22:00.887Z,21.35
2019-03-03T10:25:14.365Z,17.90
2019-03-03T10:28:19.144Z,17.75
2019-03-03T10:31:31.698Z,17.70
2019-03-03T10:34:51.043Z,16.12
2019-03-03T10:37:55.456Z,16.45
2019-03-03T10:41:00.829Z,14.73
2019-03-03T10:44:13.589Z,17.62
2019-03-03T10:47:25.109Z,17.62
2019-03-03T10:50:38.098Z,16.50
2019-03-03T10:53:51.887Z,18.57
2019-03-03T10:57:10.990Z,19.62
2019-03-03T11:00:21.656Z,15.55
2019-03-03T11:03:37.531Z,15.13
2019-03-03T11:06:43.199Z,20.75
2019-03-03T11:09:54.747Z,14.83
2019-03-03T11:12:56.820Z,16.10
2019-03-03T11:16:05.764Z,15.55
2019-03-03T11:19:20.140Z,15.10
2019-03-03T11:22:33.020Z,16.93
2019-03-03T11:25:44.621Z,15.35
2019-03-03T11:28:57.180Z,16.73
2019-03-03T11:32:13.789Z,16.05
2019-03-03T11:35:32.342Z,15.58
2019-03-03T11:38:49.433Z,14.87
2019-03-03T11:42:01.873Z,14.87
2019-03-03T11:45:14.958Z,16.52
2019-03-03T11:48:19.821Z,14.18
2019-03-03T11:51:31.943Z,15.25
2019-03-03T11:54:56.926Z,21.40
2019-03-03T11:58:08.229Z,15.60
2019-03-03T12:01:20.800Z,15.38
2019-03-03T12:04:43.801Z,13.55
2019-03-03T12:07:53.317Z,15.32
2019-03-03T12:11:05.042Z,14.87
2019-03-03T12:14:16.954Z,14.53
2019-03-03T12:17:35.889Z,16.57
2019-03-03T12:20:48.662Z,16.65
2019-03-03T12:24:02.017Z,15.35
2019-03-03T12:27:14.475Z,16.37
2019-03-03T12:30:30.362Z,17.10
2019-03-03T12:33:34.328Z,16.30
2019-03-03T12:36:43.292Z,23.60
2019-03-03T12:39:54.448Z,15.55
2019-03-03T12:43:07.481Z,14.60
2019-03-03T12:46:14.582Z,16.87
2019-03-03T12:49:37.964Z,16.32
2019-03-03T12:52:56.929Z,21.45
2019-03-03T12:56:07.810Z,19.75
2019-03-03T12:59:30.088Z,26.97
2019-03-03T13:02:48.733Z,21.40
2019-03-03T13:06:01.135Z,23.35
2019-03-03T13:09:12.498Z,20.10
2019-03-03T13:12:35.234Z,20.92
2019-03-03T13:15:46.227Z,25.88
2019-03-03T13:18:57.773Z,27.10
2019-03-03T13:22:06.637Z,24.02
2019-03-03T13:25:22.265Z,23.57
2019-03-03T13:28:50.227Z,23.00
2019-03-03T13:32:02.110Z,26.00
2019-03-03T13:35:08.683Z,26.65
2019-03-03T13:38:15.657Z,29.75
2019-03-03T13:41:25.563Z,27.58
2019-03-03T13:44:20.476Z,26.50
2019-03-03T13:47:14.949Z,27.20
2019-03-03T13:50:11.011Z,28.30
2019-03-03T13:53:05.494Z,29.75
2019-03-03T13:56:00.272Z,33.63
2019-03-03T13:58:55.230Z,33.85
2019-03-03T14:01:50.224Z,34.60
2019-03-03T14:04:46.163Z,36.90
2019-03-03T14:07:41.596Z,35.55
2019-03-03T14:10:37.450Z,34.10
2019-03-03T14:13:32.759Z,36.68
2019-03-03T14:16:27.546Z,39.90
2019-03-03T14:19:22.630Z,45.65
2019-03-03T14:22:18.163Z,41.68
2019-03-03T14:25:13.115Z,37.20
2019-03-03T14:28:08.546Z,36.65
2019-03-03T14:31:03.561Z,37.42
2019-03-03T14:33:59.824Z,36.58
2019-03-03T14:36:55.977Z,36.00
2019-03-03T14:39:51.987Z,35.17
2019-03-03T14:42:47.337Z,35.15
2019-03-03T14:45:42.134Z,34.73
2019-03-03T14:48:37.204Z,33.38
2019-03-03T14:51:33.135Z,32.65
2019-03-03T14:54:28.098Z,32.40
2019-03-03T14:57:23.575Z,31.97
2019-03-03T15:00:30.656Z,30.90
2019-03-03T15:03:26.704Z,29.42
2019-03-03T15:06:24.609Z,30.32
2019-03-03T15:09:29.500Z,30.75
2019-03-03T15:12:25.149Z,30.57
2019-03-03T15:15:20.407Z,31.62
2019-03-03T15:18:16.655Z,31.70
2019-03-03T15:21:11.432Z,31.55
2019-03-03T15:24:07.031Z,31.33
2019-03-03T15:27:02.211Z,31.70
2019-03-03T15:29:57.802Z,31.33
2019-03-03T15:32:52.997Z,38.40
2019-03-03T15:35:48.781Z,29.90
2019-03-03T15:38:43.718Z,28.38
2019-03-03T15:41:38.635Z,28.75
2019-03-03T15:44:34.042Z,28.62
2019-03-03T15:47:28.942Z,27.95
2019-03-03T15:50:24.177Z,27.05
2019-03-03T15:53:19.449Z,27.35
2019-03-03T15:56:15.229Z,29.30
2019-03-03T15:59:10.422Z,30.45
2019-03-03T16:02:07.464Z,30.60
2019-03-03T16:05:02.046Z,27.62
2019-03-03T16:07:58.031Z,25.65
2019-03-03T16:10:53.772Z,22.15
2019-03-03T16:13:49.095Z,22.20
2019-03-03T16:16:43.932Z,22.07
2019-03-03T16:19:38.682Z,20.88
2019-03-03T16:22:34.110Z,21.02
2019-03-03T16:25:29.073Z,21.85
2019-03-03T16:28:24.441Z,21.97
2019-03-03T16:31:19.599Z,21.30
2019-03-03T16:34:15.059Z,22.30
2019-03-03T16:37:10.472Z,22.60
2019-03-03T16:40:05.286Z,22.65
2019-03-03T16:43:00.537Z,23.02
2019-03-03T16:45:55.795Z,23.67
2019-03-03T16:48:51.119Z,23.38
2019-03-03T16:51:46.284Z,24.00
2019-03-03T16:54:40.973Z,23.98
2019-03-03T16:57:37.135Z,26.57
2019-03-03T17:00:32.169Z,28.98
2019-03-03T17:03:27.428Z,28.42
2019-03-03T17:06:22.585Z,31.73
2019-03-03T17:09:17.819Z,31.62
2019-03-03T17:12:12.959Z,32.40
2019-03-03T17:15:08.324Z,34.58
2019-03-03T17:18:03.428Z,32.75
2019-03-03T17:20:58.289Z,35.35
2019-03-03T17:23:53.456Z,36.45
2019-03-03T17:26:48.191Z,35.85
2019-03-03T17:29:44.809Z,36.58
2019-03-03T17:32:39.797Z,37.08
2019-03-03T17:35:36.403Z,36.65
2019-03-03T17:38:31.299Z,36.05
2019-03-03T17:41:26.834Z,36.20
2019-03-03T17:44:21.669Z,36.25
2019-03-03T17:47:16.319Z,36.68
2019-03-03T17:50:15.194Z,36.75
2019-03-03T17:53:10.243Z,38.02
2019-03-03T17:56:05.280Z,37.85
2019-03-03T17:59:00.275Z,40.35
2019-03-03T18:01:56.218Z,38.85
2019-03-03T18:04:50.891Z,40.43
2019-03-03T18:07:46.006Z,39.95
2019-03-03T18:10:41.377Z,41.70
2019-03-03T18:13:36.377Z,40.63
2019-03-03T18:16:31.344Z,40.65
2019-03-03T18:19:26.225Z,41.98
2019-03-03T18:22:20.865Z,42.50
2019-03-03T18:25:17.043Z,43.25
2019-03-03T18:28:12.305Z,43.58
2019-03-03T18:31:06.845Z,45.23
2019-03-03T18:34:02.063Z,45.75
2019-03-03T18:36:57.031Z,47.73
2019-03-03T18:39:52.053Z,48.58
2019-03-03T18:42:46.705Z,47.23
2019-03-03T18:45:42.139Z,48.05
2019-03-03T18:48:37.267Z,46.65
2019-03-03T18:51:35.319Z,47.08
2019-03-03T18:54:31.103Z,46.42
2019-03-03T18:57:26.101Z,47.95
2019-03-03T19:00:23.760Z,47.30
2019-03-03T19:03:18.900Z,48.60
2019-03-03T19:06:13.803Z,48.45
2019-03-03T19:09:10.547Z,48.48
2019-03-03T19:12:05.775Z,49.35
2019-03-03T19:15:00.461Z,48.87
2019-03-03T19:17:55.906Z,48.63
2019-03-03T19:20:50.966Z,50.67
2019-03-03T19:23:46.408Z,50.90
2019-03-03T19:26:41.065Z,51.88
2019-03-03T19:29:35.936Z,51.50
2019-03-03T19:32:31.275Z,49.98
2019-03-03T19:35:26.181Z,52.03
2019-03-03T19:38:21.459Z,52.48
2019-03-03T19:41:16.932Z,52.85
2019-03-03T19:44:12.801Z,51.37
2019-03-03T19:47:08.451Z,51.77
2019-03-03T19:50:03.612Z,52.43
2019-03-03T19:52:59.778Z,51.70
2019-03-03T19:55:55.265Z,51.02
2019-03-03T19:58:50.847Z,52.10
2019-03-03T20:01:46.801Z,51.83
2019-03-03T20:04:42.382Z,52.08
2019-03-03T20:07:38.008Z,51.75
2019-03-03T20:10:33.847Z,51.20
2019-03-03T20:13:29.718Z,50.50
2019-03-03T20:16:24.772Z,50.88
2019-03-03T20:19:20.149Z,50.88
2019-03-03T20:22:15.731Z,49.83
2019-03-03T20:25:11.883Z,49.20
2019-03-03T20:28:07.085Z,49.48
2019-03-03T20:31:02.944Z,51.08
2019-03-03T20:33:59.067Z,50.08
2019-03-03T20:36:54.515Z,49.33
2019-03-03T20:39:50.180Z,50.12
2019-03-03T20:42:45.968Z,49.80
2019-03-03T20:45:41.405Z,49.95
2019-03-03T20:48:36.990Z,49.73
2019-03-03T20:51:32.282Z,49.75
2019-03-03T20:54:27.912Z,50.00
2019-03-03T20:57:23.199Z,49.73
2019-03-03T21:00:20.876Z,49.93
2019-03-03T21:03:16.544Z,49.93
2019-03-03T21:06:11.839Z,48.92
2019-03-03T21:09:08.171Z,50.43
2019-03-03T21:12:04.724Z,49.85
2019-03-03T21:15:00.298Z,49.15
2019-03-03T21:17:55.510Z,48.55
2019-03-03T21:20:50.806Z,49.60
2019-03-03T21:23:46.211Z,51.05
2019-03-03T21:26:42.504Z,50.33
2019-03-03T21:29:38.036Z,50.65
2019-03-03T21:32:33.646Z,50.75
2019-03-03T21:35:29.552Z,49.42
2019-03-03T21:38:25.694Z,50.20
2019-03-03T21:41:21.949Z,48.58
2019-03-03T21:44:17.208Z,49.85
2019-03-03T21:47:13.117Z,49.08
2019-03-03T21:50:09.202Z,50.05
2019-03-03T21:53:04.525Z,48.25
2019-03-03T21:56:00.152Z,49.60
2019-03-03T21:58:55.995Z,49.50
2019-03-03T22:01:51.754Z,48.63
2019-03-03T22:04:46.877Z,48.65
2019-03-03T22:07:42.536Z,52.23
2019-03-03T22:10:37.874Z,50.43
2019-03-03T22:13:33.714Z,50.88
2019-03-03T22:16:29.195Z,49.67
2019-03-03T22:19:24.664Z,51.53
2019-03-03T22:22:20.511Z,52.65
2019-03-03T22:25:16.875Z,54.80
2019-03-03T22:28:12.222Z,59.83
2019-03-03T22:31:07.343Z,59.58
2019-03-03T22:34:02.781Z,59.55
2019-03-03T22:36:58.601Z,61.60
2019-03-03T22:39:54.497Z,62.85
2019-03-03T22:42:50.188Z,66.35
2019-03-03T22:45:45.996Z,65.28
2019-03-03T22:48:42.048Z,64.00
2019-03-03T22:51:37.879Z,65.72
2019-03-03T22:54:33.100Z,64.60
2019-03-03T22:57:28.517Z,65.65
2019-03-03T23:00:47.151Z,66.85
2019-03-03T23:03:58.051Z,66.53
2019-03-03T23:07:09.034Z,70.90
2019-03-03T23:10:49.359Z,69.05
2019-03-03T23:13:53.277Z,65.25
2019-03-03T23:17:14.288Z,67.30
2019-03-03T23:20:16.581Z,69.10
2019-03-03T23:23:56.934Z,68.15
2019-03-03T23:26:52.642Z,66.17
2019-03-03T23:29:47.928Z,64.35
2019-03-03T23:32:43.356Z,65.12
2019-03-03T23:35:38.968Z,63.92
2019-03-03T23:38:34.479Z,64.37
2019-03-03T23:41:30.739Z,64.82
2019-03-03T23:44:26.678Z,63.40
2019-03-03T23:47:22.783Z,64.47
2019-03-03T23:50:18.164Z,63.17
2019-03-03T23:53:13.250Z,62.80
2019-03-03T23:56:08.176Z,64.30
2019-03-03T23:59:04.000Z,63.35
